Time;durP1;ratioP1;P1;durP2;ratioP2;P2;SDS_P1;SDS_P2;PMS_P1;PMS_P2;Temp;Humidity;BMP_temperature;BMP_pressure;BME280_temperature;BME280_humidity;BME280_pressure;Samples;Min_cycle;Max_cycle;Signal;HPM_P1;HPM_P2
2023/03/27 00:00:40;;;;;;;0.70;0.70;;;;;;;;;;5105451;28;20195;-69
2023/03/27 00:03:07;;;;;;;0.60;0.60;;;;;;;;;;5105281;28;20216;-69
2023/03/27 00:05:33;;;;;;;1.10;1.00;;;;;;;;;;5105517;28;20496;-69
2023/03/27 00:08:00;;;;;;;0.85;0.75;;;;;;;;;;5105244;28;20241;-70
2023/03/27 00:10:27;;;;;;;0.88;0.88;;;;;;;;;;5105128;28;20526;-69
2023/03/27 00:12:53;;;;;;;0.65;0.65;;;;;;;;;;5105226;28;20257;-69
2023/03/27 00:15:20;;;;;;;0.65;0.65;;;;;;;;;;5105163;28;20204;-69
2023/03/27 00:17:49;;;;;;;0.85;0.85;;;;;;;;;;5105271;28;20195;-69
2023/03/27 00:20:16;;;;;;;0.63;0.55;;;;;;;;;;5105407;28;20196;-69
2023/03/27 00:22:42;;;;;;;0.80;0.80;;;;;;;;;;5104951;28;20358;-69
2023/03/27 00:25:09;;;;;;;1.00;0.82;;;;;;;;;;5105140;28;20195;-69
2023/03/27 00:27:35;;;;;;;0.60;0.60;;;;;;;;;;5105073;28;20433;-69
2023/03/27 00:30:05;;;;;;;0.80;0.80;;;;;;;;;;5104964;28;20203;-70
2023/03/27 00:32:31;;;;;;;0.85;0.70;;;;;;;;;;5104610;28;20215;-69
2023/03/27 00:34:59;;;;;;;0.80;0.80;;;;;;;;;;5104733;28;20204;-69
2023/03/27 00:37:25;;;;;;;0.80;0.80;;;;;;;;;;5104953;28;20510;-69
2023/03/27 00:39:51;;;;;;;1.95;1.10;;;;;;;;;;5104739;28;20200;-69
2023/03/27 00:42:21;;;;;;;1.08;1.08;;;;;;;;;;5104403;28;20563;-69
2023/03/27 00:44:48;;;;;;;1.23;1.20;;;;;;;;;;5104528;28;20245;-69
2023/03/27 00:47:15;;;;;;;0.95;0.95;;;;;;;;;;5104531;28;20188;-69
2023/03/27 00:49:41;;;;;;;1.95;1.20;;;;;;;;;;5104684;28;20217;-69
2023/03/27 00:52:11;;;;;;;1.00;0.98;;;;;;;;;;5104390;28;20505;-69
2023/03/27 00:54:38;;;;;;;0.93;0.93;;;;;;;;;;5104126;28;20196;-69
2023/03/27 00:57:06;;;;;;;1.33;1.25;;;;;;;;;;5104446;28;20404;-69
2023/03/27 00:59:35;;;;;;;1.20;1.20;;;;;;;;;;5104531;28;20196;-69
2023/03/27 01:02:02;;;;;;;1.60;1.27;;;;;;;;;;5104282;28;20192;-69
2023/03/27 01:04:28;;;;;;;1.08;1.08;;;;;;;;;;5104437;28;20196;-69
2023/03/27 01:06:55;;;;;;;0.90;0.90;;;;;;;;;;5103769;28;20196;-69
2023/03/27 01:09:25;;;;;;;0.70;0.70;;;;;;;;;;5104015;28;20204;-69
2023/03/27 01:11:59;;;;;;;0.90;0.90;;;;;;;;;;5103905;28;20203;-69
2023/03/27 01:14:30;;;;;;;0.80;0.80;;;;;;;;;;5104085;28;20426;-69
2023/03/27 01:17:01;;;;;;;0.75;0.73;;;;;;;;;;5104388;28;20386;-69
2023/03/27 01:19:41;;;;;;;1.48;0.68;;;;;;;;;;5104197;28;20200;-69
2023/03/27 01:22:18;;;;;;;0.60;0.60;;;;;;;;;;5104041;28;20191;-69
2023/03/27 01:24:59;;;;;;;0.82;0.60;;;;;;;;;;5103995;28;20196;-69
2023/03/27 01:27:37;;;;;;;0.60;0.60;;;;;;;;;;5101175;28;20216;-69
2023/03/27 01:30:11;;;;;;;0.70;0.70;;;;;;;;;;5104100;28;20196;-69
2023/03/27 01:32:59;;;;;;;0.50;0.50;;;;;;;;;;5103498;28;20252;-69
2023/03/27 01:35:37;;;;;;;0.65;0.65;;;;;;;;;;5103683;28;20196;-69
2023/03/27 01:38:14;;;;;;;0.40;0.40;;;;;;;;;;5103634;28;20622;-69
2023/03/27 01:40:46;;;;;;;0.60;0.60;;;;;;;;;;5103822;28;20241;-69
2023/03/27 01:43:14;;;;;;;0.70;0.70;;;;;;;;;;5103425;28;20199;-69
2023/03/27 01:45:43;;;;;;;0.70;0.70;;;;;;;;;;5103467;28;20471;-69
2023/03/27 01:48:11;;;;;;;0.75;0.75;;;;;;;;;;5103465;28;20200;-69
2023/03/27 01:50:40;;;;;;;0.90;0.90;;;;;;;;;;5103541;28;20196;-69
2023/03/27 01:53:10;;;;;;;1.00;1.00;;;;;;;;;;5103357;28;20475;-69
2023/03/27 01:55:39;;;;;;;1.48;1.30;;;;;;;;;;5102900;28;20195;-69
2023/03/27 01:58:07;;;;;;;1.25;0.90;;;;;;;;;;5103423;28;20491;-69
2023/03/27 02:00:35;;;;;;;1.38;1.27;;;;;;;;;;5103318;28;20231;-69
2023/03/27 02:03:06;;;;;;;0.85;0.85;;;;;;;;;;5103022;28;20198;-69
2023/03/27 02:05:35;;;;;;;1.25;1.17;;;;;;;;;;5103068;28;20207;-69
2023/03/27 02:08:04;;;;;;;1.10;1.10;;;;;;;;;;5103449;28;20199;-69
2023/03/27 02:10:33;;;;;;;1.20;1.20;;;;;;;;;;5103140;28;20204;-69
2023/03/27 02:13:01;;;;;;;1.50;1.33;;;;;;;;;;5102759;28;20265;-69
2023/03/27 02:15:30;;;;;;;0.93;0.93;;;;;;;;;;5102880;28;20195;-69
2023/03/27 02:18:03;;;;;;;1.00;1.00;;;;;;;;;;5102836;28;20196;-69
2023/03/27 02:20:30;;;;;;;1.20;1.20;;;;;;;;;;5102918;28;20202;-69
2023/03/27 02:22:59;;;;;;;1.17;0.88;;;;;;;;;;5102810;28;20195;-69
2023/03/27 02:25:27;;;;;;;1.30;1.20;;;;;;;;;;5102810;28;20261;-69
2023/03/27 02:27:59;;;;;;;1.08;1.08;;;;;;;;;;5102653;28;20606;-69
2023/03/27 02:30:30;;;;;;;0.90;0.90;;;;;;;;;;5102979;28;20204;-69
2023/03/27 02:33:03;;;;;;;1.10;1.10;;;;;;;;;;5102391;28;20215;-69
2023/03/27 02:35:34;;;;;;;1.20;1.20;;;;;;;;;;5102852;28;20515;-69
2023/03/27 02:38:07;;;;;;;1.30;1.25;;;;;;;;;;5102593;28;20595;-69
2023/03/27 02:40:37;;;;;;;1.30;1.30;;;;;;;;;;5102569;28;20195;-69
2023/03/27 02:43:06;;;;;;;1.23;1.23;;;;;;;;;;5102522;28;20195;-69
2023/03/27 02:45:36;;;;;;;1.52;1.42;;;;;;;;;;5102752;28;20233;-69
2023/03/27 02:48:06;;;;;;;1.73;1.60;;;;;;;;;;5102674;28;20233;-69
2023/03/27 02:50:36;;;;;;;2.33;1.83;;;;;;;;;;5102354;28;20207;-69
2023/03/27 02:53:04;;;;;;;4.47;3.10;;;;;;;;;;5102461;28;20211;-69
2023/03/27 02:55:33;;;;;;;9.30;3.80;;;;;;;;;;5102624;28;20195;-69
2023/03/27 02:58:01;;;;;;;8.65;4.15;;;;;;;;;;5102574;28;20196;-69
2023/03/27 03:00:29;;;;;;;12.75;4.65;;;;;;;;;;5102488;28;20203;-69
2023/03/27 03:03:00;;;;;;;8.20;4.03;;;;;;;;;;5102108;28;20266;-69
2023/03/27 03:05:28;;;;;;;7.07;4.40;;;;;;;;;;5102234;28;20202;-69
2023/03/27 03:07:56;;;;;;;9.48;4.60;;;;;;;;;;5102468;28;20200;-69
2023/03/27 03:10:23;;;;;;;8.15;4.07;;;;;;;;;;5102089;28;20202;-69
2023/03/27 03:12:49;;;;;;;12.48;4.63;;;;;;;;;;5101986;28;20219;-69
2023/03/27 03:15:17;;;;;;;11.05;4.78;;;;;;;;;;5102098;28;20196;-69
2023/03/27 03:17:43;;;;;;;15.43;5.45;;;;;;;;;;5102122;28;20227;-69
2023/03/27 03:20:11;;;;;;;12.63;5.63;;;;;;;;;;5102151;28;20204;-69
2023/03/27 03:22:39;;;;;;;18.48;5.25;;;;;;;;;;5102297;28;20191;-69
2023/03/27 03:25:05;;;;;;;11.65;4.75;;;;;;;;;;5102127;28;20261;-69
2023/03/27 03:27:32;;;;;;;12.80;4.93;;;;;;;;;;5102081;28;20240;-69
2023/03/27 03:29:59;;;;;;;8.80;4.78;;;;;;;;;;5102142;28;20405;-69
2023/03/27 03:32:26;;;;;;;12.48;4.20;;;;;;;;;;5101674;28;20503;-69
2023/03/27 03:34:52;;;;;;;11.00;4.28;;;;;;;;;;5102127;28;20204;-69
2023/03/27 03:37:18;;;;;;;9.95;3.90;;;;;;;;;;5102353;28;20267;-69
2023/03/27 03:39:46;;;;;;;6.95;3.75;;;;;;;;;;5102028;28;20227;-70
2023/03/27 03:42:12;;;;;;;5.80;4.05;;;;;;;;;;5101695;28;20192;-69
2023/03/27 03:44:39;;;;;;;7.18;3.85;;;;;;;;;;5101953;28;20192;-69
2023/03/27 03:47:05;;;;;;;8.77;3.97;;;;;;;;;;5101858;28;20196;-69
2023/03/27 03:49:31;;;;;;;9.75;4.20;;;;;;;;;;5102033;28;20203;-69
2023/03/27 03:51:57;;;;;;;5.90;3.97;;;;;;;;;;5102025;28;20207;-69
2023/03/27 03:54:23;;;;;;;10.00;4.53;;;;;;;;;;5101775;28;20313;-69
2023/03/27 03:56:51;;;;;;;14.05;4.57;;;;;;;;;;5101806;28;20199;-69
2023/03/27 03:59:17;;;;;;;10.02;4.25;;;;;;;;;;5101751;28;20200;-69
2023/03/27 04:01:44;;;;;;;8.90;3.90;;;;;;;;;;5101515;28;20283;-69
2023/03/27 04:04:11;;;;;;;4.28;2.80;;;;;;;;;;5101766;28;20196;-69
2023/03/27 04:06:37;;;;;;;4.78;2.58;;;;;;;;;;5101821;28;20196;-69
2023/03/27 04:09:04;;;;;;;8.98;2.40;;;;;;;;;;5101983;28;20196;-69
2023/03/27 04:11:30;;;;;;;4.80;2.60;;;;;;;;;;5101612;28;20202;-69
2023/03/27 04:13:58;;;;;;;3.08;2.22;;;;;;;;;;5102013;28;20223;-69
2023/03/27 04:16:24;;;;;;;2.85;2.65;;;;;;;;;;5101512;28;20210;-69
2023/03/27 04:18:53;;;;;;;7.65;2.72;;;;;;;;;;5103533;28;20242;-70
2023/03/27 04:21:19;;;;;;;3.50;3.20;;;;;;;;;;5105052;28;20245;-69
2023/03/27 04:23:47;;;;;;;10.02;3.38;;;;;;;;;;5105165;28;20201;-69
2023/03/27 04:26:14;;;;;;;12.88;4.05;;;;;;;;;;5105106;28;20196;-69
2023/03/27 04:28:41;;;;;;;11.02;3.35;;;;;;;;;;5104866;28;20598;-71
2023/03/27 04:31:09;;;;;;;17.33;4.43;;;;;;;;;;5105016;28;20199;-69
2023/03/27 04:33:38;;;;;;;15.52;4.40;;;;;;;;;;5105102;28;20543;-68
2023/03/27 04:36:05;;;;;;;12.13;4.43;;;;;;;;;;5104931;28;20271;-68
2023/03/27 04:38:32;;;;;;;13.80;4.22;;;;;;;;;;5104782;28;20235;-69
2023/03/27 04:40:58;;;;;;;10.10;3.38;;;;;;;;;;5104815;28;20252;-69
2023/03/27 04:43:24;;;;;;;6.55;3.28;;;;;;;;;;5104695;28;20514;-69
2023/03/27 04:45:52;;;;;;;11.80;3.58;;;;;;;;;;5104900;28;20219;-69
2023/03/27 04:48:20;;;;;;;8.75;3.33;;;;;;;;;;5104976;28;20227;-69
2023/03/27 04:50:48;;;;;;;10.05;3.65;;;;;;;;;;5104658;28;20214;-69
2023/03/27 04:53:15;;;;;;;10.38;3.28;;;;;;;;;;5104277;28;20535;-71
2023/03/27 04:55:41;;;;;;;10.45;3.60;;;;;;;;;;5104512;28;20202;-71
2023/03/27 04:58:08;;;;;;;9.20;3.22;;;;;;;;;;5104583;28;20200;-70
2023/03/27 05:00:35;;;;;;;9.13;3.40;;;;;;;;;;5104853;28;20195;-70
2023/03/27 05:03:01;;;;;;;9.85;3.28;;;;;;;;;;5104450;28;20492;-70
2023/03/27 05:05:29;;;;;;;15.07;3.38;;;;;;;;;;5104744;28;20293;-72
2023/03/27 05:07:55;;;;;;;8.80;2.85;;;;;;;;;;5104327;28;20275;-70
2023/03/27 05:10:22;;;;;;;9.68;2.92;;;;;;;;;;5104262;28;20211;-70
2023/03/27 05:12:49;;;;;;;13.68;3.40;;;;;;;;;;5104356;28;20270;-69
2023/03/27 05:15:16;;;;;;;11.77;2.95;;;;;;;;;;5104446;28;20219;-69
2023/03/27 05:17:44;;;;;;;12.98;3.00;;;;;;;;;;5104457;28;20195;-69
2023/03/27 05:20:13;;;;;;;10.25;3.20;;;;;;;;;;5104287;28;20341;-69
2023/03/27 05:22:41;;;;;;;10.77;3.72;;;;;;;;;;5103821;28;20207;-69
2023/03/27 05:25:08;;;;;;;14.77;2.90;;;;;;;;;;5103784;28;20265;-70
2023/03/27 05:27:34;;;;;;;13.95;3.10;;;;;;;;;;5103963;28;20238;-70
2023/03/27 05:30:00;;;;;;;9.63;2.60;;;;;;;;;;5102553;28;20202;-70
2023/03/27 05:32:26;;;;;;;11.13;3.15;;;;;;;;;;5103823;28;20195;-70
2023/03/27 05:34:53;;;;;;;10.60;3.38;;;;;;;;;;5103686;28;20223;-70
2023/03/27 05:37:20;;;;;;;12.85;2.83;;;;;;;;;;5103939;28;20215;-70
2023/03/27 05:39:47;;;;;;;8.80;3.05;;;;;;;;;;5103397;28;20236;-70
2023/03/27 05:42:14;;;;;;;6.75;2.72;;;;;;;;;;5103595;28;20385;-70
2023/03/27 05:44:41;;;;;;;10.00;2.58;;;;;;;;;;5103629;28;20192;-70
2023/03/27 05:47:09;;;;;;;10.15;2.33;;;;;;;;;;5103460;28;20199;-70
2023/03/27 05:49:35;;;;;;;13.13;2.75;;;;;;;;;;5103460;28;20237;-70
2023/03/27 05:52:02;;;;;;;8.25;2.50;;;;;;;;;;5103078;28;20202;-70
2023/03/27 05:54:28;;;;;;;10.85;2.33;;;;;;;;;;5103310;28;20531;-70
2023/03/27 05:56:55;;;;;;;13.75;2.60;;;;;;;;;;5103340;28;20390;-70
2023/03/27 05:59:22;;;;;;;11.90;2.88;;;;;;;;;;5103332;28;20195;-70
2023/03/27 06:01:49;;;;;;;7.25;2.45;;;;;;;;;;5103109;28;20382;-70
2023/03/27 06:04:16;;;;;;;12.95;2.80;;;;;;;;;;5103270;28;20331;-71
2023/03/27 06:06:43;;;;;;;18.65;2.53;;;;;;;;;;5102868;28;20202;-70
2023/03/27 06:09:09;;;;;;;13.00;2.78;;;;;;;;;;5103082;28;21283;-70
2023/03/27 06:11:36;;;;;;;4.97;2.33;;;;;;;;;;5103014;28;20234;-70
2023/03/27 06:14:03;;;;;;;13.25;2.60;;;;;;;;;;5103598;28;20223;-71
2023/03/27 06:16:30;;;;;;;8.77;3.08;;;;;;;;;;5103086;28;20196;-70
2023/03/27 06:18:56;;;;;;;8.23;2.35;;;;;;;;;;5102775;28;20230;-70
2023/03/27 06:21:22;;;;;;;11.70;2.50;;;;;;;;;;5102604;28;20199;-70
2023/03/27 06:23:48;;;;;;;13.80;2.58;;;;;;;;;;5102948;28;20206;-70
2023/03/27 06:26:15;;;;;;;8.95;2.70;;;;;;;;;;5102856;28;20199;-70
2023/03/27 06:28:42;;;;;;;8.05;3.15;;;;;;;;;;5102524;28;20215;-70
2023/03/27 06:31:10;;;;;;;11.65;2.88;;;;;;;;;;5102689;28;20195;-71
2023/03/27 06:33:38;;;;;;;8.82;2.47;;;;;;;;;;5102756;28;20625;-71
2023/03/27 06:36:05;;;;;;;7.90;2.55;;;;;;;;;;5102550;28;20195;-70
2023/03/27 06:38:32;;;;;;;12.60;3.10;;;;;;;;;;5102765;28;20257;-62
2023/03/27 06:40:59;;;;;;;14.68;2.50;;;;;;;;;;5101879;28;20202;-62
2023/03/27 06:43:25;;;;;;;8.57;2.25;;;;;;;;;;5102341;28;20199;-63
2023/03/27 06:45:52;;;;;;;7.40;2.33;;;;;;;;;;5102380;28;20431;-62
2023/03/27 06:48:20;;;;;;;11.00;2.10;;;;;;;;;;5089739;28;20449;-59
2023/03/27 06:50:48;;;;;;;8.73;3.08;;;;;;;;;;5089378;28;20212;-59
2023/03/27 06:53:16;;;;;;;12.70;2.50;;;;;;;;;;5095973;28;20253;-59
2023/03/27 06:55:42;;;;;;;11.27;2.30;;;;;;;;;;5076854;28;20224;-63
2023/03/27 06:58:12;;;;;;;8.80;2.80;;;;;;;;;;5079788;28;20207;-63
2023/03/27 07:00:39;;;;;;;8.35;2.22;;;;;;;;;;5092955;28;20471;-63
2023/03/27 07:03:07;;;;;;;13.52;4.20;;;;;;;;;;5093506;28;20215;-63
2023/03/27 07:05:36;;;;;;;10.23;2.40;;;;;;;;;;5093801;28;20230;-60
2023/03/27 07:08:02;;;;;;;9.18;2.88;;;;;;;;;;5091794;28;20211;-59
2023/03/27 07:10:29;;;;;;;4.35;2.03;;;;;;;;;;5095435;28;20265;-60
2023/03/27 07:12:55;;;;;;;9.07;2.33;;;;;;;;;;5095399;28;20503;-59
2023/03/27 07:15:22;;;;;;;8.18;2.63;;;;;;;;;;5094959;28;20223;-60
2023/03/27 07:17:52;;;;;;;11.32;2.42;;;;;;;;;;5095140;28;20527;-59
2023/03/27 07:20:19;;;;;;;9.30;2.38;;;;;;;;;;5094636;28;20204;-59
2023/03/27 07:22:46;;;;;;;15.52;2.78;;;;;;;;;;5094973;28;20253;-60
2023/03/27 07:25:13;;;;;;;13.57;2.75;;;;;;;;;;5095918;28;20256;-59
2023/03/27 07:27:39;;;;;;;8.23;2.20;;;;;;;;;;5096774;28;20269;-59
2023/03/27 07:30:06;;;;;;;3.55;1.98;;;;;;;;;;5092469;28;20234;-60
2023/03/27 07:32:33;;;;;;;11.48;2.20;;;;;;;;;;5095352;28;20223;-59
2023/03/27 07:35:00;;;;;;;13.18;2.53;;;;;;;;;;5096103;28;20231;-60
2023/03/27 07:37:27;;;;;;;13.27;2.40;;;;;;;;;;5095330;28;20220;-61
2023/03/27 07:39:54;;;;;;;10.93;3.05;;;;;;;;;;5097118;28;20212;-60
2023/03/27 07:42:21;;;;;;;6.50;1.80;;;;;;;;;;5094652;28;20203;-60
2023/03/27 07:44:47;;;;;;;6.63;2.22;;;;;;;;;;5095151;28;20432;-59
2023/03/27 07:47:13;;;;;;;10.55;2.33;;;;;;;;;;5095954;28;20212;-59
2023/03/27 07:49:40;;;;;;;9.63;2.60;;;;;;;;;;5095283;28;20223;-59
2023/03/27 07:52:07;;;;;;;9.88;2.53;;;;;;;;;;5095588;28;20311;-60
2023/03/27 07:54:34;;;;;;;9.63;2.95;;;;;;;;;;5098923;28;20231;-60
2023/03/27 07:57:02;;;;;;;8.18;1.95;;;;;;;;;;5099599;28;20203;-60
2023/03/27 07:59:28;;;;;;;9.25;2.25;;;;;;;;;;5098822;28;20212;-60
2023/03/27 08:01:56;;;;;;;6.13;2.40;;;;;;;;;;5098064;28;20227;-60
2023/03/27 08:04:22;;;;;;;11.23;2.53;;;;;;;;;;5090397;28;20192;-60
2023/03/27 08:06:50;;;;;;;10.02;2.20;;;;;;;;;;5085416;28;20215;-59
2023/03/27 08:09:16;;;;;;;10.10;2.13;;;;;;;;;;5086094;28;20247;-59
2023/03/27 08:11:43;;;;;;;8.65;1.90;;;;;;;;;;5087287;28;20209;-59
2023/03/27 08:14:10;;;;;;;10.40;2.28;;;;;;;;;;5087689;28;20543;-60
2023/03/27 08:16:37;;;;;;;5.53;1.80;;;;;;;;;;5087919;28;20208;-60
2023/03/27 08:19:05;;;;;;;7.88;2.03;;;;;;;;;;5088269;28;20208;-60
2023/03/27 08:21:32;;;;;;;6.20;1.95;;;;;;;;;;5085537;28;20204;-59
2023/03/27 08:23:58;;;;;;;8.23;2.10;;;;;;;;;;5088804;28;20222;-60
2023/03/27 08:26:25;;;;;;;8.10;2.20;;;;;;;;;;5098458;28;20460;-59
2023/03/27 08:28:52;;;;;;;7.05;1.83;;;;;;;;;;5097708;28;20232;-60
2023/03/27 08:31:20;;;;;;;7.20;1.75;;;;;;;;;;5096115;28;20438;-60
2023/03/27 08:33:46;;;;;;;6.05;1.60;;;;;;;;;;5087963;28;20270;-63
2023/03/27 08:36:13;;;;;;;6.95;2.22;;;;;;;;;;5083637;28;20617;-61
2023/03/27 08:38:40;;;;;;;6.22;1.42;;;;;;;;;;5085279;28;20584;-61
2023/03/27 08:41:06;;;;;;;7.93;1.83;;;;;;;;;;5087983;28;20436;-62
2023/03/27 08:43:35;;;;;;;4.90;1.67;;;;;;;;;;5091326;28;20199;-60
2023/03/27 08:46:04;;;;;;;5.40;2.45;;;;;;;;;;5085348;28;20211;-61
2023/03/27 08:48:33;;;;;;;5.13;1.77;;;;;;;;;;5089800;28;20457;-60
2023/03/27 08:51:02;;;;;;;3.60;1.52;;;;;;;;;;5086491;28;20205;-60
2023/03/27 08:53:32;;;;;;;5.28;1.85;;;;;;;;;;5082532;28;20238;-59
2023/03/27 08:55:59;;;;;;;7.30;1.80;;;;;;;;;;5083324;28;20220;-59
2023/03/27 08:58:26;;;;;;;5.70;2.10;;;;;;;;;;5092449;28;20448;-59
2023/03/27 09:00:55;;;;;;;4.30;1.77;;;;;;;;;;5097912;28;20215;-60
2023/03/27 09:03:24;;;;;;;9.13;2.05;;;;;;;;;;5097027;28;20409;-60
2023/03/27 09:05:53;;;;;;;4.95;1.60;;;;;;;;;;5087625;28;20270;-60
2023/03/27 09:08:24;;;;;;;5.80;1.58;;;;;;;;;;5095804;28;20223;-60
2023/03/27 09:10:51;;;;;;;5.13;1.60;;;;;;;;;;5096855;28;20243;-59
2023/03/27 09:13:20;;;;;;;7.63;2.70;;;;;;;;;;5096846;28;20460;-60
2023/03/27 09:15:52;;;;;;;4.85;2.50;;;;;;;;;;5096720;28;20584;-59
2023/03/27 09:18:20;;;;;;;8.45;2.53;;;;;;;;;;5096428;28;20212;-60
2023/03/27 09:20:49;;;;;;;10.27;1.98;;;;;;;;;;5097700;28;20219;-60
2023/03/27 09:23:19;;;;;;;6.28;2.20;;;;;;;;;;5080291;28;20218;-60
2023/03/27 09:25:47;;;;;;;6.18;2.30;;;;;;;;;;5090854;28;20200;-60
2023/03/27 09:28:16;;;;;;;5.13;2.17;;;;;;;;;;5093530;28;20304;-60
2023/03/27 09:30:42;;;;;;;5.55;1.60;;;;;;;;;;5095388;28;20216;-60
2023/03/27 09:33:10;;;;;;;6.00;1.73;;;;;;;;;;5094212;28;20417;-60
2023/03/27 09:35:37;;;;;;;9.60;2.95;;;;;;;;;;5096195;28;20248;-59
2023/03/27 09:38:05;;;;;;;8.50;2.00;;;;;;;;;;5096140;28;20577;-58
2023/03/27 09:40:39;;;;;;;4.03;1.48;;;;;;;;;;5095859;28;20254;-58
2023/03/27 09:43:08;;;;;;;8.15;1.65;;;;;;;;;;5095297;28;20708;-57
2023/03/27 09:45:36;;;;;;;5.95;1.60;;;;;;;;;;5095045;28;20534;-59
2023/03/27 09:48:05;;;;;;;4.20;1.70;;;;;;;;;;5096157;28;20211;-58
2023/03/27 09:50:33;;;;;;;4.40;1.58;;;;;;;;;;5094590;28;20204;-59
2023/03/27 09:53:06;;;;;;;4.53;1.42;;;;;;;;;;5093614;28;20235;-58
2023/03/27 09:55:34;;;;;;;2.90;1.70;;;;;;;;;;5095241;28;20566;-59
2023/03/27 09:58:09;;;;;;;6.38;1.80;;;;;;;;;;5097087;28;20208;-59
2023/03/27 10:00:35;;;;;;;3.22;1.45;;;;;;;;;;5090545;28;20417;-59
2023/03/27 10:03:04;;;;;;;5.03;1.52;;;;;;;;;;5096102;28;20270;-59
2023/03/27 10:05:31;;;;;;;5.25;1.42;;;;;;;;;;5096932;28;20208;-60
2023/03/27 10:07:57;;;;;;;8.57;1.23;;;;;;;;;;5096702;28;20215;-59
2023/03/27 10:10:25;;;;;;;7.13;1.48;;;;;;;;;;5096336;28;20219;-59
2023/03/27 10:12:55;;;;;;;10.65;1.77;;;;;;;;;;5097095;28;20257;-60
2023/03/27 10:15:30;;;;;;;5.18;1.55;;;;;;;;;;5095913;28;20224;-60
2023/03/27 10:17:56;;;;;;;6.05;1.42;;;;;;;;;;5081191;28;20210;-60
2023/03/27 10:20:23;;;;;;;7.35;1.67;;;;;;;;;;5096643;28;20454;-60
2023/03/27 10:22:51;;;;;;;4.00;1.38;;;;;;;;;;5096478;28;20223;-60
2023/03/27 10:25:19;;;;;;;1.67;1.20;;;;;;;;;;5095830;28;20209;-58
2023/03/27 10:27:45;;;;;;;4.63;1.40;;;;;;;;;;5096233;28;20232;-59
2023/03/27 10:30:26;;;;;;;9.18;1.60;;;;;;;;;;5096399;28;20216;-60
2023/03/27 10:32:52;;;;;;;6.07;1.70;;;;;;;;;;5095836;28;20452;-60
2023/03/27 10:35:23;;;;;;;4.68;1.10;;;;;;;;;;5096547;28;20231;-60
2023/03/27 10:37:50;;;;;;;5.28;1.50;;;;;;;;;;5095376;28;20450;-60
2023/03/27 10:40:17;;;;;;;5.95;1.48;;;;;;;;;;5095867;28;20212;-59
2023/03/27 10:42:43;;;;;;;4.22;1.27;;;;;;;;;;5095585;28;20196;-60
2023/03/27 10:45:14;;;;;;;8.82;1.08;;;;;;;;;;5096145;28;20211;-60
2023/03/27 10:47:45;;;;;;;2.42;1.50;;;;;;;;;;5095787;28;20496;-60
2023/03/27 10:50:13;;;;;;;5.43;1.73;;;;;;;;;;5096031;28;20218;-60
2023/03/27 10:52:45;;;;;;;5.28;1.00;;;;;;;;;;5095757;28;20220;-60
2023/03/27 10:55:17;;;;;;;6.65;1.02;;;;;;;;;;5095915;28;20239;-60
2023/03/27 10:57:47;;;;;;;2.03;1.40;;;;;;;;;;5096346;28;20273;-60
2023/03/27 11:00:17;;;;;;;4.47;1.48;;;;;;;;;;5096066;28;20519;-60
2023/03/27 11:02:46;;;;;;;3.97;1.50;;;;;;;;;;5095933;28;20262;-60
2023/03/27 11:05:13;;;;;;;4.35;1.45;;;;;;;;;;5095563;28;20207;-60
2023/03/27 11:07:42;;;;;;;7.40;1.40;;;;;;;;;;5096377;28;20211;-60
2023/03/27 11:10:12;;;;;;;4.65;1.20;;;;;;;;;;5094867;28;20405;-60
2023/03/27 11:12:40;;;;;;;4.38;1.48;;;;;;;;;;5096385;28;20200;-62
2023/03/27 11:15:13;;;;;;;6.30;1.40;;;;;;;;;;5095251;28;20637;-60
2023/03/27 11:17:42;;;;;;;3.28;1.00;;;;;;;;;;5079875;28;20213;-59
2023/03/27 11:20:16;;;;;;;6.43;1.67;;;;;;;;;;5082739;28;20429;-60
2023/03/27 11:22:43;;;;;;;5.88;1.50;;;;;;;;;;5079530;28;20546;-59
2023/03/27 11:25:17;;;;;;;7.25;0.95;;;;;;;;;;5088062;28;20251;-59
2023/03/27 11:27:47;;;;;;;4.50;1.55;;;;;;;;;;5084731;28;20239;-60
2023/03/27 11:30:28;;;;;;;4.15;1.25;;;;;;;;;;5088816;28;20487;-59
2023/03/27 11:33:02;;;;;;;2.28;1.10;;;;;;;;;;5089134;28;20546;-60
2023/03/27 11:35:33;;;;;;;3.28;1.10;;;;;;;;;;5092039;28;20600;-60
2023/03/27 11:38:01;;;;;;;9.10;1.33;;;;;;;;;;5081536;28;20415;-60
2023/03/27 11:40:29;;;;;;;3.78;1.50;;;;;;;;;;5098645;28;20551;-59
2023/03/27 11:42:55;;;;;;;2.72;1.40;;;;;;;;;;5098641;28;20458;-59
2023/03/27 11:45:23;;;;;;;2.53;1.00;;;;;;;;;;5089521;28;20207;-60
2023/03/27 11:47:56;;;;;;;5.47;1.70;;;;;;;;;;5098303;28;20208;-60
2023/03/27 11:50:25;;;;;;;2.15;1.20;;;;;;;;;;5089687;28;20585;-60
2023/03/27 11:53:01;;;;;;;3.83;0.93;;;;;;;;;;5089296;28;20468;-59
2023/03/27 11:55:31;;;;;;;2.38;1.00;;;;;;;;;;5090693;28;20455;-60
2023/03/27 11:58:06;;;;;;;3.38;0.95;;;;;;;;;;5090330;28;20483;-60
2023/03/27 12:00:35;;;;;;;1.90;0.90;;;;;;;;;;5096765;28;20238;-60
2023/03/27 12:03:22;;;;;;;6.30;1.40;;;;;;;;;;5093020;28;20278;-60
2023/03/27 12:05:54;;;;;;;4.38;1.10;;;;;;;;;;5089993;28;20442;-59
2023/03/27 12:08:27;;;;;;;5.63;1.67;;;;;;;;;;5095584;28;20338;-58
2023/03/27 12:10:55;;;;;;;4.93;1.33;;;;;;;;;;5097602;28;20223;-61
2023/03/27 12:13:34;;;;;;;9.18;1.65;;;;;;;;;;5096805;28;20285;-62
2023/03/27 12:16:07;;;;;;;3.95;1.02;;;;;;;;;;5097298;28;20227;-62
2023/03/27 12:18:38;;;;;;;3.58;1.20;;;;;;;;;;5092482;28;20278;-61
2023/03/27 12:21:12;;;;;;;3.53;1.20;;;;;;;;;;5093768;28;20220;-62
2023/03/27 12:23:51;;;;;;;1.98;1.00;;;;;;;;;;5088732;28;20207;-61
2023/03/27 12:26:36;;;;;;;3.42;1.20;;;;;;;;;;5077673;28;20205;-62
2023/03/27 12:29:09;;;;;;;6.38;1.20;;;;;;;;;;5081358;28;20426;-61
2023/03/27 12:31:45;;;;;;;2.30;1.00;;;;;;;;;;5081973;28;20216;-62
2023/03/27 12:34:14;;;;;;;4.28;1.20;;;;;;;;;;5084361;28;20283;-62
2023/03/27 12:36:43;;;;;;;8.18;1.25;;;;;;;;;;5091846;28;20464;-59
2023/03/27 12:39:19;;;;;;;4.30;1.27;;;;;;;;;;5087587;28;20397;-61
2023/03/27 12:41:46;;;;;;;2.72;1.05;;;;;;;;;;5090325;28;20321;-61
2023/03/27 12:44:13;;;;;;;3.40;1.58;;;;;;;;;;5085526;28;20223;-61
2023/03/27 12:46:40;;;;;;;5.63;0.95;;;;;;;;;;5090539;28;20207;-60
2023/03/27 12:49:36;;;;;;;5.35;1.30;;;;;;;;;;5090762;28;20220;-61
2023/03/27 12:52:04;;;;;;;4.50;1.20;;;;;;;;;;5090648;28;20429;-61
2023/03/27 12:54:32;;;;;;;2.53;0.75;;;;;;;;;;5082252;28;20208;-61
2023/03/27 12:57:03;;;;;;;1.88;1.08;;;;;;;;;;5090463;28;20481;-61
2023/03/27 12:59:31;;;;;;;4.15;0.90;;;;;;;;;;5087753;28;20400;-60
2023/03/27 13:02:18;;;;;;;2.28;0.90;;;;;;;;;;5087618;28;20279;-60
2023/03/27 13:05:05;;;;;;;4.65;1.00;;;;;;;;;;5078435;28;20488;-61
2023/03/27 13:07:34;;;;;;;1.98;0.60;;;;;;;;;;5081544;28;20465;-61
2023/03/27 13:10:12;;;;;;;1.70;1.00;;;;;;;;;;5085508;28;20219;-61
2023/03/27 13:12:48;;;;;;;2.58;1.45;;;;;;;;;;5086133;28;20253;-60
2023/03/27 13:15:20;;;;;;;3.55;1.15;;;;;;;;;;5095764;28;20218;-61
2023/03/27 13:18:17;;;;;;;1.15;1.00;;;;;;;;;;5090085;28;20211;-61
2023/03/27 13:20:46;;;;;;;1.88;0.90;;;;;;;;;;5023145;28;20215;-62
2023/03/27 13:23:27;;;;;;;4.95;0.90;;;;;;;;;;5072527;28;20652;-62
2023/03/27 13:26:03;;;;;;;8.10;1.20;;;;;;;;;;5086597;28;20208;-61
2023/03/27 13:28:31;;;;;;;5.40;1.05;;;;;;;;;;5086058;28;20498;-61
2023/03/27 13:30:58;;;;;;;1.95;0.85;;;;;;;;;;5092395;28;20394;-61
2023/03/27 13:33:26;;;;;;;4.82;1.10;;;;;;;;;;5087476;28;20212;-61
2023/03/27 13:36:03;;;;;;;5.38;1.10;;;;;;;;;;5086077;28;20299;-61
2023/03/27 13:38:47;;;;;;;2.80;0.75;;;;;;;;;;5088382;28;20220;-60
2023/03/27 13:41:32;;;;;;;4.65;0.88;;;;;;;;;;5089149;28;20424;-62
2023/03/27 13:44:00;;;;;;;3.90;1.20;;;;;;;;;;5086289;28;20253;-61
2023/03/27 13:46:28;;;;;;;6.57;1.20;;;;;;;;;;5078875;28;20235;-61
2023/03/27 13:49:03;;;;;;;2.80;1.00;;;;;;;;;;5083616;28;20215;-61
2023/03/27 13:51:46;;;;;;;1.52;0.88;;;;;;;;;;5085601;28;20299;-61
2023/03/27 13:54:37;;;;;;;2.05;1.33;;;;;;;;;;5086073;28;20204;-61
2023/03/27 13:57:04;;;;;;;2.47;1.17;;;;;;;;;;5089445;28;20297;-61
2023/03/27 13:59:49;;;;;;;1.65;0.90;;;;;;;;;;5086485;28;20219;-61
2023/03/27 14:02:29;;;;;;;2.90;1.25;;;;;;;;;;5085487;28;20424;-61
2023/03/27 14:05:06;;;;;;;3.17;1.13;;;;;;;;;;5085689;28;20212;-62
2023/03/27 14:07:54;;;;;;;4.15;1.33;;;;;;;;;;5093730;28;20218;-61
2023/03/27 14:10:31;;;;;;;3.78;1.35;;;;;;;;;;5072766;28;20220;-61
2023/03/27 14:13:16;;;;;;;6.50;1.20;;;;;;;;;;5111449;27;20626;-60
2023/03/27 14:15:52;;;;;;;3.40;1.10;;;;;;;;;;5108452;28;20215;-59
2023/03/27 14:18:27;;;;;;;3.53;1.52;;;;;;;;;;5114941;28;20445;-60
2023/03/27 14:20:54;;;;;;;4.95;1.45;;;;;;;;;;5112259;28;20526;-59
2023/03/27 14:23:25;;;;;;;4.68;1.38;;;;;;;;;;5114353;28;20211;-58
2023/03/27 14:25:55;;;;;;;4.18;1.60;;;;;;;;;;5115512;28;20242;-59
2023/03/27 14:28:28;;;;;;;6.00;1.63;;;;;;;;;;5102351;28;20456;-60
2023/03/27 14:30:55;;;;;;;3.08;1.20;;;;;;;;;;5092199;28;20243;-59
2023/03/27 14:33:21;;;;;;;4.55;1.70;;;;;;;;;;5088410;28;20208;-59
2023/03/27 14:35:53;;;;;;;3.85;1.42;;;;;;;;;;5087873;28;20208;-60
2023/03/27 14:38:22;;;;;;;4.20;1.40;;;;;;;;;;5091969;28;20219;-60
2023/03/27 14:40:50;;;;;;;4.97;1.73;;;;;;;;;;5091919;28;20352;-59
2023/03/27 14:43:17;;;;;;;2.72;1.40;;;;;;;;;;5090462;28;20531;-59
2023/03/27 14:45:46;;;;;;;2.28;1.10;;;;;;;;;;5091629;28;20235;-59
2023/03/27 14:48:18;;;;;;;5.10;1.65;;;;;;;;;;5093241;28;20286;-60
2023/03/27 14:50:45;;;;;;;3.58;1.77;;;;;;;;;;5092120;28;20215;-60
2023/03/27 14:53:15;;;;;;;6.78;1.75;;;;;;;;;;5090236;28;20224;-60